Time;durP1;ratioP1;P1;durP2;ratioP2;P2;SDS_P1;SDS_P2;PMS_P1;PMS_P2;Temp;Humidity;BMP_temperature;BMP_pressure;BME280_temperature;BME280_humidity;BME280_pressure;Samples;Min_cycle;Max_cycle;Signal;HPM_P1;HPM_P2
2022/06/25 00:02:18;;;;;;;6.92;4.03;;;;;;;;;;1775683;81;21571;-78
2022/06/25 00:07:29;;;;;;;8.43;4.45;;;;;;;;;;1775598;81;21103;-79
2022/06/25 00:09:55;;;;;;;5.10;4.05;;;;;;;;;;1774846;80;21036;-78
2022/06/25 00:12:34;;;;;;;9.23;4.42;;;;;;;;;;1775909;81;21536;-78
2022/06/25 00:15:01;;;;;;;6.90;4.45;;;;;;;;;;1768176;81;21516;-78
2022/06/25 00:17:27;;;;;;;6.40;4.08;;;;;;;;;;1760389;81;21051;-78
2022/06/25 00:19:54;;;;;;;6.58;4.12;;;;;;;;;;1765995;80;21465;-78
2022/06/25 00:22:20;;;;;;;7.20;4.90;;;;;;;;;;1773753;81;21493;-78
2022/06/25 00:24:46;;;;;;;6.40;4.05;;;;;;;;;;1775875;81;20980;-78
2022/06/25 00:27:12;;;;;;;6.17;4.00;;;;;;;;;;1776013;80;21033;-79
2022/06/25 00:29:38;;;;;;;7.83;4.50;;;;;;;;;;1775200;80;21074;-78
2022/06/25 00:32:09;;;;;;;7.45;4.25;;;;;;;;;;1773123;80;21017;-78
2022/06/25 00:34:33;;;;;;;5.97;4.03;;;;;;;;;;1781917;80;21110;-78
2022/06/25 00:36:59;;;;;;;5.35;4.12;;;;;;;;;;1789632;80;21016;-78
2022/06/25 00:39:26;;;;;;;6.37;4.08;;;;;;;;;;1778688;80;21059;-79
2022/06/25 00:41:52;;;;;;;8.00;4.95;;;;;;;;;;1775396;81;21052;-79
2022/06/25 00:44:18;;;;;;;8.28;4.67;;;;;;;;;;1797815;78;21024;-79
2022/06/25 00:46:47;;;;;;;5.37;4.20;;;;;;;;;;1792563;79;21006;-79
2022/06/25 00:49:13;;;;;;;5.55;4.55;;;;;;;;;;1774057;81;22038;-79
2022/06/25 00:51:40;;;;;;;6.53;4.45;;;;;;;;;;1801723;78;21028;-79
2022/06/25 00:54:06;;;;;;;8.38;4.95;;;;;;;;;;1787614;79;20997;-79
2022/06/25 00:58:29;;;;;;;5.62;4.20;;;;;;;;;;1802958;79;23499;-79
2022/06/25 01:03:44;;;;;;;6.08;4.37;;;;;;;;;;1742452;78;21179;-78
2022/06/25 01:06:11;;;;;;;7.95;4.22;;;;;;;;;;1734145;81;21050;-78
2022/06/25 01:08:38;;;;;;;7.17;4.17;;;;;;;;;;1753348;81;21024;-78
2022/06/25 01:11:04;;;;;;;7.47;4.78;;;;;;;;;;1732678;81;21169;-77
2022/06/25 01:13:30;;;;;;;6.00;4.53;;;;;;;;;;1745839;81;21029;-78
2022/06/25 01:15:56;;;;;;;6.25;4.25;;;;;;;;;;1734492;81;21003;-78
2022/06/25 01:18:23;;;;;;;5.42;4.17;;;;;;;;;;1759647;81;21514;-78
2022/06/25 01:20:49;;;;;;;6.70;4.83;;;;;;;;;;1761497;81;20984;-79
2022/06/25 01:23:15;;;;;;;6.80;4.35;;;;;;;;;;1756499;81;21067;-79
2022/06/25 01:25:42;;;;;;;6.33;4.47;;;;;;;;;;1731642;82;21095;-78
2022/06/25 01:28:08;;;;;;;5.83;4.60;;;;;;;;;;1730465;81;20999;-79
2022/06/25 01:30:34;;;;;;;6.15;4.20;;;;;;;;;;1766500;81;21031;-78
2022/06/25 01:33:02;;;;;;;6.33;4.35;;;;;;;;;;1762484;81;21025;-79
2022/06/25 01:35:30;;;;;;;7.50;4.53;;;;;;;;;;1759066;81;21623;-79
2022/06/25 01:37:57;;;;;;;5.42;4.20;;;;;;;;;;1747453;81;21689;-79
2022/06/25 01:40:22;;;;;;;5.15;4.25;;;;;;;;;;1764879;81;20976;-79
2022/06/25 01:42:58;;;;;;;4.95;4.10;;;;;;;;;;1760596;81;21019;-78
2022/06/25 01:45:25;;;;;;;6.92;4.45;;;;;;;;;;1746190;81;21001;-79
2022/06/25 01:47:52;;;;;;;7.35;4.40;;;;;;;;;;1732388;81;20985;-79
2022/06/25 01:50:18;;;;;;;4.87;4.17;;;;;;;;;;1731515;83;21047;-79
2022/06/25 01:52:46;;;;;;;6.40;4.20;;;;;;;;;;1730273;82;21048;-78
2022/06/25 01:55:12;;;;;;;5.72;4.10;;;;;;;;;;1706315;83;21004;-78
2022/06/25 01:57:40;;;;;;;6.58;4.25;;;;;;;;;;1737147;81;21011;-78
2022/06/25 02:00:07;;;;;;;8.20;4.10;;;;;;;;;;1743308;81;21008;-78
2022/06/25 02:02:37;;;;;;;6.55;4.40;;;;;;;;;;1736466;80;21088;-78
2022/06/25 02:05:04;;;;;;;5.20;4.25;;;;;;;;;;1730073;81;21060;-78
2022/06/25 02:07:30;;;;;;;6.35;3.95;;;;;;;;;;1760402;81;21095;-77
2022/06/25 02:09:56;;;;;;;7.00;4.10;;;;;;;;;;1757491;81;21009;-78
2022/06/25 02:12:23;;;;;;;6.97;3.87;;;;;;;;;;1745057;81;21036;-77
2022/06/25 02:14:49;;;;;;;6.30;4.45;;;;;;;;;;1738249;81;21042;-77
2022/06/25 02:17:17;;;;;;;6.17;4.03;;;;;;;;;;1728553;83;21099;-78
2022/06/25 02:19:43;;;;;;;6.15;4.20;;;;;;;;;;1730350;81;21074;-78
2022/06/25 02:22:14;;;;;;;5.70;4.22;;;;;;;;;;1722815;81;21197;-78
2022/06/25 02:24:37;;;;;;;6.67;4.20;;;;;;;;;;1722930;83;21068;-78
2022/06/25 02:27:04;;;;;;;6.42;4.25;;;;;;;;;;1725943;83;21056;-78
2022/06/25 02:29:31;;;;;;;5.65;4.33;;;;;;;;;;1724142;81;21348;-79
2022/06/25 02:31:59;;;;;;;8.68;5.47;;;;;;;;;;1726406;81;21001;-78
2022/06/25 02:34:25;;;;;;;6.45;4.97;;;;;;;;;;1725606;81;21076;-78
2022/06/25 02:36:52;;;;;;;6.42;4.62;;;;;;;;;;1699013;83;21574;-78
2022/06/25 02:39:24;;;;;;;5.65;4.08;;;;;;;;;;1722835;81;21033;-79
2022/06/25 02:41:48;;;;;;;5.62;3.98;;;;;;;;;;1719330;83;21796;-79
2022/06/25 02:44:16;;;;;;;5.47;4.22;;;;;;;;;;1726544;81;21535;-78
2022/06/25 02:46:44;;;;;;;8.48;4.12;;;;;;;;;;1721826;81;21012;-78
2022/06/25 02:49:10;;;;;;;6.28;4.60;;;;;;;;;;1740098;81;21017;-79
2022/06/25 02:51:36;;;;;;;6.70;4.60;;;;;;;;;;1755451;81;21484;-78
2022/06/25 02:54:03;;;;;;;4.90;4.15;;;;;;;;;;1721888;83;21306;-78
2022/06/25 02:59:15;;;;;;;8.45;4.05;;;;;;;;;;1730107;81;21043;-78
2022/06/25 03:01:46;;;;;;;5.87;4.50;;;;;;;;;;1716045;82;21049;-78
2022/06/25 03:04:13;;;;;;;5.28;4.10;;;;;;;;;;1698681;83;21089;-78
2022/06/25 03:06:39;;;;;;;4.95;4.10;;;;;;;;;;1702604;84;21061;-78
2022/06/25 03:09:07;;;;;;;7.15;4.00;;;;;;;;;;1706169;84;21129;-79
2022/06/25 03:11:33;;;;;;;8.23;4.47;;;;;;;;;;1728946;82;21486;-78
2022/06/25 03:14:00;;;;;;;6.62;3.72;;;;;;;;;;1717704;82;21505;-78
2022/06/25 03:16:26;;;;;;;6.15;4.40;;;;;;;;;;1707378;84;21506;-78
2022/06/25 03:18:53;;;;;;;5.60;3.47;;;;;;;;;;1728852;82;21049;-78
2022/06/25 03:21:27;;;;;;;5.00;3.47;;;;;;;;;;1713175;82;21082;-78
2022/06/25 03:23:55;;;;;;;5.35;3.65;;;;;;;;;;1703274;82;21061;-78
2022/06/25 03:26:22;;;;;;;5.92;3.60;;;;;;;;;;1707539;84;21042;-78
2022/06/25 03:28:48;;;;;;;5.67;4.10;;;;;;;;;;1726993;81;21040;-78
2022/06/25 03:31:14;;;;;;;5.40;3.55;;;;;;;;;;1730612;81;21052;-79
2022/06/25 03:33:43;;;;;;;4.37;3.20;;;;;;;;;;1729183;81;22235;-76
2022/06/25 03:36:10;;;;;;;5.05;3.35;;;;;;;;;;1723969;81;21056;-76
2022/06/25 03:38:46;;;;;;;5.67;3.60;;;;;;;;;;1737457;81;21041;-76
2022/06/25 03:43:59;;;;;;;4.75;3.42;;;;;;;;;;1682169;85;21097;-76
2022/06/25 03:46:26;;;;;;;5.45;3.83;;;;;;;;;;1725264;82;21353;-77
2022/06/25 03:48:52;;;;;;;6.50;3.50;;;;;;;;;;1735733;81;21513;-77
2022/06/25 03:51:20;;;;;;;7.28;3.83;;;;;;;;;;1727188;83;21046;-76
2022/06/25 03:53:46;;;;;;;3.92;3.00;;;;;;;;;;1729480;83;21012;-77
2022/06/25 03:56:12;;;;;;;4.85;3.00;;;;;;;;;;1712492;83;21060;-76
2022/06/25 03:58:41;;;;;;;3.50;2.80;;;;;;;;;;1743741;81;21060;-76
2022/06/25 04:01:07;;;;;;;7.60;3.35;;;;;;;;;;1757474;81;21008;-76
2022/06/25 04:03:35;;;;;;;4.03;3.27;;;;;;;;;;1753600;80;21165;-76
2022/06/25 04:06:03;;;;;;;4.47;3.58;;;;;;;;;;1735914;82;21088;-77
2022/06/25 04:08:41;;;;;;;4.40;3.00;;;;;;;;;;1725417;81;21068;-77
2022/06/25 04:11:09;;;;;;;4.58;2.90;;;;;;;;;;1747791;81;21040;-77
2022/06/25 04:13:37;;;;;;;4.12;3.30;;;;;;;;;;1751239;81;21055;-78
2022/06/25 04:16:04;;;;;;;4.92;3.12;;;;;;;;;;1761775;81;21079;-77
2022/06/25 04:18:31;;;;;;;3.75;2.98;;;;;;;;;;1752742;81;21050;-76
2022/06/25 04:20:58;;;;;;;5.78;3.20;;;;;;;;;;1755888;81;21017;-77
2022/06/25 04:23:25;;;;;;;6.42;3.20;;;;;;;;;;1762527;81;21000;-78
2022/06/25 04:25:51;;;;;;;4.25;3.05;;;;;;;;;;1755711;80;21000;-78
2022/06/25 04:31:03;;;;;;;4.33;2.70;;;;;;;;;;1709949;82;21014;-77
2022/06/25 04:33:30;;;;;;;4.92;3.25;;;;;;;;;;1727812;82;21026;-75
2022/06/25 04:36:01;;;;;;;3.55;3.02;;;;;;;;;;1723583;82;21005;-76
2022/06/25 04:38:46;;;;;;;4.20;3.20;;;;;;;;;;1713624;82;21065;-76
2022/06/25 04:41:13;;;;;;;5.42;2.95;;;;;;;;;;1725492;82;21025;-76
2022/06/25 04:43:39;;;;;;;3.75;3.15;;;;;;;;;;1710473;84;22059;-75
2022/06/25 04:46:07;;;;;;;4.37;3.10;;;;;;;;;;1705190;82;21082;-75
2022/06/25 04:48:35;;;;;;;5.17;3.12;;;;;;;;;;1716518;82;21025;-75
2022/06/25 04:51:09;;;;;;;3.37;2.85;;;;;;;;;;1723643;82;21353;-76
2022/06/25 04:53:54;;;;;;;4.72;2.90;;;;;;;;;;1708290;83;21033;-75
2022/06/25 04:56:03;;;;;;;4.53;2.83;;;;;;;;;;1692223;84;21075;-75
2022/06/25 04:58:29;;;;;;;4.17;3.08;;;;;;;;;;1700765;82;21053;-75
2022/06/25 05:01:14;;;;;;;6.22;3.50;;;;;;;;;;1736245;81;21618;-75
2022/06/25 05:03:40;;;;;;;5.00;3.00;;;;;;;;;;1731022;81;21034;-76
2022/06/25 05:06:08;;;;;;;4.97;2.90;;;;;;;;;;1732570;81;21543;-74
2022/06/25 05:08:35;;;;;;;5.28;3.45;;;;;;;;;;1731814;83;21031;-75
2022/06/25 05:11:01;;;;;;;4.45;3.40;;;;;;;;;;1732048;83;21007;-75
2022/06/25 05:13:28;;;;;;;4.70;3.20;;;;;;;;;;1731868;83;21095;-76
2022/06/25 05:15:54;;;;;;;3.37;3.08;;;;;;;;;;1740315;81;21459;-75
2022/06/25 05:18:20;;;;;;;3.58;2.77;;;;;;;;;;1756786;81;20996;-75
2022/06/25 05:20:46;;;;;;;4.37;3.05;;;;;;;;;;1758453;81;21023;-75
2022/06/25 05:23:13;;;;;;;4.10;2.92;;;;;;;;;;1762681;81;21110;-76
2022/06/25 05:25:39;;;;;;;4.65;3.58;;;;;;;;;;1750002;81;21047;-75
2022/06/25 05:28:05;;;;;;;3.95;3.20;;;;;;;;;;1742000;81;21011;-74
2022/06/25 05:30:32;;;;;;;4.60;3.08;;;;;;;;;;1732186;81;21016;-74
2022/06/25 05:32:58;;;;;;;7.05;3.20;;;;;;;;;;1736794;81;21505;-74
2022/06/25 05:35:25;;;;;;;4.17;2.70;;;;;;;;;;1741436;82;21066;-74
2022/06/25 05:37:51;;;;;;;5.85;3.47;;;;;;;;;;1729495;83;21047;-73
2022/06/25 05:40:17;;;;;;;3.58;2.90;;;;;;;;;;1731499;81;21518;-75
2022/06/25 05:42:43;;;;;;;7.42;3.30;;;;;;;;;;1731518;81;21018;-76
2022/06/25 05:45:09;;;;;;;4.22;3.08;;;;;;;;;;1727989;81;21500;-76
2022/06/25 05:47:36;;;;;;;4.70;3.00;;;;;;;;;;1723469;83;21566;-75
2022/06/25 05:50:02;;;;;;;5.28;3.17;;;;;;;;;;1756281;81;21082;-73
2022/06/25 05:52:28;;;;;;;4.78;3.35;;;;;;;;;;1722107;82;21045;-73
2022/06/25 05:54:54;;;;;;;8.33;3.25;;;;;;;;;;1711898;82;22086;-74
2022/06/25 05:57:20;;;;;;;5.45;3.60;;;;;;;;;;1711805;84;21552;-72
2022/06/25 05:59:46;;;;;;;4.87;2.90;;;;;;;;;;1712778;82;20976;-73
2022/06/25 06:02:12;;;;;;;4.95;3.05;;;;;;;;;;1726101;82;21094;-75
2022/06/25 06:04:38;;;;;;;7.50;3.50;;;;;;;;;;1706770;82;21069;-73
2022/06/25 06:07:05;;;;;;;5.10;2.77;;;;;;;;;;1700176;84;21110;-75
2022/06/25 06:09:34;;;;;;;5.15;2.95;;;;;;;;;;1710581;82;21437;-74
2022/06/25 06:12:00;;;;;;;5.33;2.92;;;;;;;;;;1709829;82;21019;-76
2022/06/25 06:14:26;;;;;;;3.55;2.45;;;;;;;;;;1709792;82;21531;-75
2022/06/25 06:16:52;;;;;;;4.45;3.00;;;;;;;;;;1703148;84;21184;-74
2022/06/25 06:19:18;;;;;;;4.22;3.10;;;;;;;;;;1752496;81;21576;-75
2022/06/25 06:21:44;;;;;;;4.42;3.02;;;;;;;;;;1729447;81;21505;-75
2022/06/25 06:24:10;;;;;;;3.45;2.80;;;;;;;;;;1735455;81;21070;-74
2022/06/25 06:26:37;;;;;;;4.58;3.10;;;;;;;;;;1747193;81;21096;-74
2022/06/25 06:29:03;;;;;;;5.12;3.77;;;;;;;;;;1727860;81;21025;-74
2022/06/25 06:31:29;;;;;;;4.60;3.10;;;;;;;;;;1736252;81;21025;-74
2022/06/25 06:33:55;;;;;;;4.80;3.00;;;;;;;;;;1721543;83;21036;-75
2022/06/25 06:36:21;;;;;;;3.80;2.90;;;;;;;;;;1728348;81;21101;-75
2022/06/25 06:38:47;;;;;;;3.55;2.83;;;;;;;;;;1759830;81;21112;-75
2022/06/25 06:41:14;;;;;;;3.98;2.80;;;;;;;;;;1734753;81;21104;-75
2022/06/25 06:43:40;;;;;;;4.70;2.80;;;;;;;;;;1728543;82;21013;-74
2022/06/25 06:46:06;;;;;;;4.22;3.00;;;;;;;;;;1725902;82;21056;-74
2022/06/25 06:48:32;;;;;;;5.75;2.70;;;;;;;;;;1726239;81;20994;-74
2022/06/25 06:50:58;;;;;;;4.03;2.52;;;;;;;;;;1706397;83;21093;-74
2022/06/25 06:53:24;;;;;;;4.67;2.72;;;;;;;;;;1727771;81;22226;-74
2022/06/25 06:55:50;;;;;;;4.45;2.70;;;;;;;;;;1730130;81;21025;-74
2022/06/25 06:58:17;;;;;;;3.77;2.80;;;;;;;;;;1729823;81;21330;-74
2022/06/25 07:00:43;;;;;;;4.95;4.20;;;;;;;;;;1739673;81;21007;-75
2022/06/25 07:03:09;;;;;;;5.47;3.30;;;;;;;;;;1710912;81;21646;-74
2022/06/25 07:05:36;;;;;;;4.28;2.92;;;;;;;;;;1726123;81;21074;-75
2022/06/25 07:08:02;;;;;;;5.55;3.20;;;;;;;;;;1702934;82;21102;-77
2022/06/25 07:10:28;;;;;;;4.28;3.00;;;;;;;;;;1700613;82;21568;-75
2022/06/25 07:12:54;;;;;;;3.70;2.87;;;;;;;;;;1699761;82;21514;-75
2022/06/25 07:15:21;;;;;;;4.12;2.85;;;;;;;;;;1706394;83;21062;-74
2022/06/25 07:17:47;;;;;;;4.15;2.50;;;;;;;;;;1703809;82;20990;-74
2022/06/25 07:20:13;;;;;;;3.42;2.70;;;;;;;;;;1713038;82;21094;-74
2022/06/25 07:22:39;;;;;;;6.50;3.10;;;;;;;;;;1709765;82;21038;-74
2022/06/25 07:25:05;;;;;;;3.62;2.70;;;;;;;;;;1714167;82;21585;-74
2022/06/25 07:27:32;;;;;;;4.17;2.40;;;;;;;;;;1695193;84;21065;-74
2022/06/25 07:30:00;;;;;;;6.60;2.40;;;;;;;;;;1717868;82;21106;-73
2022/06/25 07:32:26;;;;;;;4.80;2.50;;;;;;;;;;1731547;82;21017;-74
2022/06/25 07:34:52;;;;;;;3.58;2.60;;;;;;;;;;1722557;82;21054;-74
2022/06/25 07:37:17;;;;;;;3.05;2.37;;;;;;;;;;1708753;82;21625;-74
2022/06/25 07:39:43;;;;;;;2.95;2.33;;;;;;;;;;1725758;83;21603;-74
2022/06/25 07:42:10;;;;;;;2.62;2.30;;;;;;;;;;1728997;81;21109;-74
2022/06/25 07:44:36;;;;;;;4.17;2.55;;;;;;;;;;1724582;81;21089;-73
2022/06/25 07:47:03;;;;;;;3.50;2.42;;;;;;;;;;1729401;81;21033;-74
2022/06/25 07:49:29;;;;;;;3.72;2.33;;;;;;;;;;1705142;82;21042;-73
2022/06/25 07:51:57;;;;;;;3.17;2.17;;;;;;;;;;1708892;84;21011;-74
2022/06/25 07:54:24;;;;;;;2.67;2.17;;;;;;;;;;1725197;83;21537;-74
2022/06/25 07:56:50;;;;;;;3.42;2.30;;;;;;;;;;1725789;81;21062;-75
2022/06/25 07:59:16;;;;;;;5.85;2.45;;;;;;;;;;1730822;81;21092;-74
2022/06/25 08:01:42;;;;;;;3.17;2.50;;;;;;;;;;1730909;81;21053;-76
2022/06/25 08:04:13;;;;;;;4.92;4.33;;;;;;;;;;1748203;81;21045;-75
2022/06/25 08:06:39;;;;;;;3.33;2.80;;;;;;;;;;1731106;81;21129;-75
2022/06/25 08:09:05;;;;;;;5.22;2.60;;;;;;;;;;1734098;81;21028;-71
2022/06/25 08:11:31;;;;;;;4.05;2.40;;;;;;;;;;1755879;81;21060;-69
2022/06/25 08:13:57;;;;;;;3.75;2.60;;;;;;;;;;1750858;80;21317;-69
2022/06/25 08:16:25;;;;;;;3.65;2.45;;;;;;;;;;1757452;81;21019;-70
2022/06/25 08:18:51;;;;;;;3.42;2.67;;;;;;;;;;1746729;81;21042;-70
2022/06/25 08:21:18;;;;;;;3.37;2.60;;;;;;;;;;1745628;81;21012;-70
2022/06/25 08:23:44;;;;;;;5.05;2.40;;;;;;;;;;1731129;81;21018;-71
2022/06/25 08:26:10;;;;;;;3.52;2.40;;;;;;;;;;1762321;81;21034;-71
2022/06/25 08:28:37;;;;;;;3.75;2.30;;;;;;;;;;1732490;81;21057;-71
2022/06/25 08:31:03;;;;;;;6.22;2.83;;;;;;;;;;1753441;81;20993;-71
2022/06/25 08:33:29;;;;;;;3.60;2.58;;;;;;;;;;1752753;81;21034;-70
2022/06/25 08:35:55;;;;;;;4.37;2.47;;;;;;;;;;1731232;81;21046;-70
2022/06/25 08:38:21;;;;;;;2.90;2.30;;;;;;;;;;1759791;81;21044;-69
2022/06/25 08:40:48;;;;;;;4.37;2.33;;;;;;;;;;1737705;81;21568;-71
2022/06/25 08:43:14;;;;;;;3.17;2.37;;;;;;;;;;1762002;81;21559;-71
2022/06/25 08:45:41;;;;;;;3.30;2.60;;;;;;;;;;1746274;81;21063;-75
2022/06/25 08:48:08;;;;;;;49.10;43.25;;;;;;;;;;1762765;81;21017;-74
2022/06/25 08:50:34;;;;;;;88.55;79.32;;;;;;;;;;1758643;81;21072;-75
2022/06/25 08:53:00;;;;;;;8.40;5.50;;;;;;;;;;1669270;83;21001;-73
2022/06/25 08:55:31;;;;;;;4.12;3.47;;;;;;;;;;1693928;83;21116;-72
2022/06/25 08:57:57;;;;;;;3.37;2.60;;;;;;;;;;1710148;82;21057;-73
2022/06/25 09:00:24;;;;;;;3.98;2.60;;;;;;;;;;1725239;82;21649;-73
2022/06/25 09:02:51;;;;;;;2.92;2.52;;;;;;;;;;1731273;81;21050;-73
2022/06/25 09:05:17;;;;;;;4.35;2.75;;;;;;;;;;1720113;82;21006;-73
2022/06/25 09:07:53;;;;;;;5.05;2.62;;;;;;;;;;1731450;83;21056;-73
2022/06/25 09:10:21;;;;;;;4.20;2.70;;;;;;;;;;1727417;81;21075;-73
2022/06/25 09:12:52;;;;;;;3.40;2.60;;;;;;;;;;1743860;81;21574;-73
2022/06/25 09:15:20;;;;;;;5.80;2.85;;;;;;;;;;1734239;81;21590;-72
2022/06/25 09:17:47;;;;;;;3.12;2.50;;;;;;;;;;1688987;85;21068;-73
2022/06/25 09:20:13;;;;;;;3.50;2.55;;;;;;;;;;1693151;83;20987;-73
2022/06/25 09:22:39;;;;;;;3.15;2.50;;;;;;;;;;1707513;82;21289;-73
2022/06/25 09:25:05;;;;;;;3.27;2.50;;;;;;;;;;1715779;83;21091;-73
2022/06/25 09:27:35;;;;;;;3.42;2.65;;;;;;;;;;1710559;82;21088;-73
2022/06/25 09:30:11;;;;;;;4.65;2.58;;;;;;;;;;1721470;82;21041;-72
2022/06/25 09:32:42;;;;;;;3.00;2.58;;;;;;;;;;1726155;82;21515;-72
2022/06/25 09:35:09;;;;;;;4.12;2.77;;;;;;;;;;1690653;85;21040;-73
2022/06/25 09:37:35;;;;;;;9.03;2.70;;;;;;;;;;1719777;82;21505;-72
2022/06/25 09:40:01;;;;;;;4.17;2.87;;;;;;;;;;1704472;83;21625;-74
2022/06/25 09:42:32;;;;;;;5.10;2.80;;;;;;;;;;1691983;83;21004;-74
2022/06/25 09:45:07;;;;;;;5.17;2.83;;;;;;;;;;1710160;82;21077;-75
2022/06/25 09:47:34;;;;;;;3.22;2.60;;;;;;;;;;1724996;82;21044;-74
2022/06/25 09:50:04;;;;;;;3.77;2.62;;;;;;;;;;1720048;82;21031;-74
2022/06/25 09:52:30;;;;;;;6.55;2.70;;;;;;;;;;1717928;83;21029;-74
2022/06/25 09:54:56;;;;;;;3.98;2.80;;;;;;;;;;1738364;82;21004;-74
2022/06/25 09:57:22;;;;;;;3.55;2.27;;;;;;;;;;1715833;82;21021;-74
2022/06/25 09:59:49;;;;;;;3.20;2.70;;;;;;;;;;1712771;82;21025;-75
2022/06/25 10:02:15;;;;;;;3.85;2.75;;;;;;;;;;1727659;80;21047;-75
2022/06/25 10:04:42;;;;;;;5.10;2.90;;;;;;;;;;1737475;82;21056;-74
2022/06/25 10:07:08;;;;;;;3.87;2.60;;;;;;;;;;1714810;82;21042;-73
2022/06/25 10:09:34;;;;;;;5.83;3.05;;;;;;;;;;1719719;82;21533;-72
2022/06/25 10:12:00;;;;;;;9.48;6.15;;;;;;;;;;1711160;83;21090;-72
2022/06/25 10:14:26;;;;;;;6.03;4.53;;;;;;;;;;1718736;82;21084;-73
2022/06/25 10:16:54;;;;;;;3.95;2.77;;;;;;;;;;1718054;83;21038;-73
2022/06/25 10:19:20;;;;;;;3.87;3.17;;;;;;;;;;1702648;82;21070;-73
2022/06/25 10:21:46;;;;;;;4.67;3.70;;;;;;;;;;1715303;82;21002;-73
2022/06/25 10:24:13;;;;;;;8.50;7.40;;;;;;;;;;1720039;82;21073;-73
2022/06/25 10:26:39;;;;;;;5.12;3.67;;;;;;;;;;1717881;83;20995;-72
2022/06/25 10:29:16;;;;;;;3.20;2.70;;;;;;;;;;1715881;82;20982;-73
2022/06/25 10:31:41;;;;;;;2.87;2.55;;;;;;;;;;1720958;82;21064;-75
2022/06/25 10:34:09;;;;;;;3.60;2.80;;;;;;;;;;1714469;83;21086;-73
2022/06/25 10:36:40;;;;;;;4.28;2.70;;;;;;;;;;1717960;83;21584;-73
2022/06/25 10:39:22;;;;;;;3.80;3.10;;;;;;;;;;1720635;82;21038;-73
2022/06/25 10:44:51;;;;;;;;;;;;;;;;;;1747388;82;21389;-74
2022/06/25 10:47:17;;;;;;;4.50;2.80;;;;;;;;;;1700405;82;20163;-73
2022/06/25 10:49:43;;;;;;;6.95;2.98;;;;;;;;;;1726166;82;21038;-73
2022/06/25 10:52:09;;;;;;;4.17;2.90;;;;;;;;;;1728161;82;21027;-72
2022/06/25 10:54:36;;;;;;;3.37;2.60;;;;;;;;;;1701093;82;21069;-75
2022/06/25 10:57:04;;;;;;;4.87;2.62;;;;;;;;;;1720890;82;22122;-72
2022/06/25 10:59:35;;;;;;;4.50;2.77;;;;;;;;;;1706116;82;21030;-73
2022/06/25 11:02:04;;;;;;;5.85;3.08;;;;;;;;;;1720800;81;21104;-73
2022/06/25 11:04:30;;;;;;;3.72;2.58;;;;;;;;;;1735346;82;21085;-75
2022/06/25 11:07:19;;;;;;;5.12;3.58;;;;;;;;;;1716442;82;21037;-73
2022/06/25 11:09:55;;;;;;;5.95;3.25;;;;;;;;;;1709098;82;21518;-73
2022/06/25 11:12:22;;;;;;;4.00;2.65;;;;;;;;;;1700437;82;21048;-74
2022/06/25 11:14:49;;;;;;;6.53;3.20;;;;;;;;;;1708299;82;21055;-73
2022/06/25 11:17:15;;;;;;;3.75;3.00;;;;;;;;;;1718591;82;21006;-74
2022/06/25 11:19:43;;;;;;;11.80;5.80;;;;;;;;;;1701849;82;20991;-74
2022/06/25 11:22:10;;;;;;;4.70;2.83;;;;;;;;;;1704826;82;21027;-76
2022/06/25 11:28:47;;;;;;;3.55;3.20;;;;;;;;;;1704955;82;21082;-74
2022/06/25 11:29:51;;;;;;;3.62;2.50;;;;;;;;;;1706366;84;21121;-74
2022/06/25 11:32:22;;;;;;;5.35;3.62;;;;;;;;;;1701731;82;21030;-74
2022/06/25 11:34:51;;;;;;;2.87;2.20;;;;;;;;;;1736235;82;21050;-73
2022/06/25 11:37:17;;;;;;;3.47;2.92;;;;;;;;;;1731481;82;22097;-72
2022/06/25 11:39:44;;;;;;;4.62;3.10;;;;;;;;;;1705704;82;21078;-77
2022/06/25 11:42:10;;;;;;;3.92;2.80;;;;;;;;;;1719703;82;21026;-74
2022/06/25 11:44:49;;;;;;;11.30;3.22;;;;;;;;;;1715025;82;21027;-72
2022/06/25 11:47:19;;;;;;;3.40;2.47;;;;;;;;;;1727416;81;21046;-72
2022/06/25 11:49:45;;;;;;;3.20;2.35;;;;;;;;;;1727016;83;21073;-72
2022/06/25 11:52:11;;;;;;;2.47;2.22;;;;;;;;;;1726973;83;21089;-72
2022/06/25 11:54:39;;;;;;;3.60;2.58;;;;;;;;;;1726977;83;21012;-72
2022/06/25 11:57:06;;;;;;;3.87;2.47;;;;;;;;;;1727299;83;21730;-72
2022/06/25 11:59:36;;;;;;;7.53;2.77;;;;;;;;;;1727429;83;20984;-72
2022/06/25 12:02:04;;;;;;;4.03;2.40;;;;;;;;;;1728809;81;21058;-72
2022/06/25 12:04:31;;;;;;;3.35;2.60;;;;;;;;;;1729300;83;21013;-72
2022/06/25 12:07:00;;;;;;;3.40;2.55;;;;;;;;;;1729480;83;21091;-72
2022/06/25 12:09:26;;;;;;;2.95;2.40;;;;;;;;;;1729669;83;21036;-72
2022/06/25 12:11:52;;;;;;;4.05;2.35;;;;;;;;;;1729852;83;21039;-72
2022/06/25 12:14:22;;;;;;;3.77;2.52;;;;;;;;;;1729777;83;21119;-72
2022/06/25 12:16:48;;;;;;;3.95;2.62;;;;;;;;;;1729885;81;21029;-72
2022/06/25 12:19:14;;;;;;;3.40;2.58;;;;;;;;;;1728277;83;21024;-72
2022/06/25 12:21:40;;;;;;;3.05;2.33;;;;;;;;;;1728333;83;21535;-71
2022/06/25 12:24:07;;;;;;;4.90;2.60;;;;;;;;;;1728280;83;20988;-71
2022/06/25 12:26:34;;;;;;;4.53;3.02;;;;;;;;;;1702251;83;21092;-71
2022/06/25 12:29:13;;;;;;;3.50;2.40;;;;;;;;;;1727854;81;21516;-71
2022/06/25 12:31:40;;;;;;;2.98;2.30;;;;;;;;;;1727946;81;21130;-71
2022/06/25 12:34:06;;;;;;;4.53;2.60;;;;;;;;;;1729764;81;21538;-72
2022/06/25 12:36:37;;;;;;;3.65;2.80;;;;;;;;;;1727997;83;21016;-72
2022/06/25 12:39:05;;;;;;;3.33;2.67;;;;;;;;;;1728375;83;21555;-72
2022/06/25 12:41:47;;;;;;;3.47;2.58;;;;;;;;;;1724467;83;21071;-72
2022/06/25 12:44:14;;;;;;;3.00;2.60;;;;;;;;;;1728538;83;20996;-72
2022/06/25 12:46:40;;;;;;;3.37;2.70;;;;;;;;;;1728433;83;21044;-72
2022/06/25 12:49:06;;;;;;;3.70;2.55;;;;;;;;;;1728714;81;21083;-72
2022/06/25 12:51:33;;;;;;;3.60;2.55;;;;;;;;;;1728263;83;21072;-72
2022/06/25 12:53:59;;;;;;;3.17;2.50;;;;;;;;;;1714608;83;21598;-72
2022/06/25 12:56:25;;;;;;;4.08;2.70;;;;;;;;;;1692609;85;20981;-72
2022/06/25 12:58:51;;;;;;;2.50;2.15;;;;;;;;;;1692667;85;21013;-72
2022/06/25 13:01:17;;;;;;;3.42;2.50;;;;;;;;;;1692475;83;21080;-73
2022/06/25 13:03:45;;;;;;;4.03;2.47;;;;;;;;;;1691654;83;21560;-72
2022/06/25 13:06:11;;;;;;;4.85;2.60;;;;;;;;;;1729708;83;21035;-72
2022/06/25 13:08:38;;;;;;;5.65;2.75;;;;;;;;;;1706902;84;21081;-73
2022/06/25 13:11:04;;;;;;;4.55;2.58;;;;;;;;;;1706769;84;21065;-72
2022/06/25 13:15:39;;;;;;;11.90;3.20;;;;;;;;;;1801896;79;22916;-71
2022/06/25 13:18:05;;;;;;;5.12;2.80;;;;;;;;;;1760770;80;21056;-73
2022/06/25 13:20:31;;;;;;;3.50;2.95;;;;;;;;;;1755882;82;21047;-73
2022/06/25 13:22:57;;;;;;;3.60;2.80;;;;;;;;;;1755931;82;21020;-72
2022/06/25 13:25:23;;;;;;;3.30;2.50;;;;;;;;;;1755780;82;21119;-73
2022/06/25 13:27:49;;;;;;;4.42;2.75;;;;;;;;;;1755838;82;21012;-72
2022/06/25 13:30:16;;;;;;;3.15;2.50;;;;;;;;;;1755742;82;21068;-72
2022/06/25 13:32:42;;;;;;;2.90;2.60;;;;;;;;;;1756308;80;20966;-72
2022/06/25 13:35:08;;;;;;;4.28;2.65;;;;;;;;;;1755961;82;21075;-72
2022/06/25 13:37:34;;;;;;;5.65;2.95;;;;;;;;;;1755834;82;21044;-72
2022/06/25 13:40:01;;;;;;;3.58;2.70;;;;;;;;;;1755914;82;21100;-72
2022/06/25 13:42:28;;;;;;;3.67;2.47;;;;;;;;;;1755805;80;21516;-72
2022/06/25 13:44:55;;;;;;;4.72;3.00;;;;;;;;;;1755659;82;21040;-72
2022/06/25 13:47:21;;;;;;;3.20;2.70;;;;;;;;;;1755824;80;21001;-72
2022/06/25 13:49:47;;;;;;;4.58;2.67;;;;;;;;;;1761003;81;21033;-72
2022/06/25 13:52:13;;;;;;;4.30;2.72;;;;;;;;;;1761407;81;21045;-72
2022/06/25 13:54:39;;;;;;;3.62;2.70;;;;;;;;;;1783790;80;20984;-72
2022/06/25 13:57:05;;;;;;;6.17;3.08;;;;;;;;;;1773096;80;21007;-72
2022/06/25 13:59:31;;;;;;;3.85;2.35;;;;;;;;;;1761814;81;21066;-72
2022/06/25 14:01:57;;;;;;;4.28;2.40;;;;;;;;;;1756666;81;22145;-72
2022/06/25 14:04:23;;;;;;;4.20;2.65;;;;;;;;;;1753531;82;20981;-72
2022/06/25 14:06:49;;;;;;;5.03;2.45;;;;;;;;;;1753635;82;20949;-72
2022/06/25 14:09:16;;;;;;;4.45;2.70;;;;;;;;;;1753343;82;21108;-72
2022/06/25 14:11:42;;;;;;;3.42;2.45;;;;;;;;;;1751725;82;21083;-72
2022/06/25 14:14:08;;;;;;;3.55;2.67;;;;;;;;;;1753728;81;20986;-72
2022/06/25 14:16:35;;;;;;;3.40;2.65;;;;;;;;;;1754412;82;21052;-72
2022/06/25 14:19:03;;;;;;;3.33;2.45;;;;;;;;;;1752906;82;20981;-72
2022/06/25 14:21:30;;;;;;;3.55;2.58;;;;;;;;;;1754007;82;21096;-72
2022/06/25 14:23:56;;;;;;;3.65;2.50;;;;;;;;;;1754295;82;21579;-72
2022/06/25 14:26:22;;;;;;;2.42;2.20;;;;;;;;;;1753878;82;21454;-71
2022/06/25 14:28:48;;;;;;;3.00;2.35;;;;;;;;;;1753791;82;21067;-71
2022/06/25 14:31:14;;;;;;;4.53;2.52;;;;;;;;;;1753680;82;21134;-75
2022/06/25 14:33:40;;;;;;;5.20;3.02;;;;;;;;;;1753499;82;21009;-71
2022/06/25 14:44:22;;;;;;;4.75;2.50;;;;;;;;;;1631653;88;21069;-72
2022/06/25 14:46:48;;;;;;;5.33;3.02;;;;;;;;;;1657560;85;21455;-72
2022/06/25 14:49:14;;;;;;;6.25;3.75;;;;;;;;;;1667304;84;21136;-72
2022/06/25 14:51:41;;;;;;;4.50;3.02;;;;;;;;;;1753714;82;21001;-72
2022/06/25 14:54:09;;;;;;;4.33;3.02;;;;;;;;;;1753101;80;21025;-72
2022/06/25 14:56:36;;;;;;;5.37;3.87;;;;;;;;;;1736274;82;21059;-72
2022/06/25 14:59:02;;;;;;;4.35;3.37;;;;;;;;;;1734902;82;21017;-72
2022/06/25 15:01:28;;;;;;;3.92;2.98;;;;;;;;;;1753581;80;21088;-72
2022/06/25 15:03:54;;;;;;;4.42;2.70;;;;;;;;;;1753800;82;21017;-72
2022/06/25 15:06:20;;;;;;;3.90;3.10;;;;;;;;;;1753362;82;21567;-72
2022/06/25 15:08:47;;;;;;;6.97;4.90;;;;;;;;;;1753212;82;21029;-72
2022/06/25 15:11:14;;;;;;;5.40;3.10;;;;;;;;;;1753576;82;21563;-72
2022/06/25 15:13:40;;;;;;;4.60;2.80;;;;;;;;;;1753735;82;21091;-72
2022/06/25 15:16:07;;;;;;;4.15;2.90;;;;;;;;;;1739516;81;21076;-72